sensor_id;sensor_type;location;lat;lon;timestamp;P1;durP1;ratioP1;P2;durP2;ratioP2
75866;SDS011;64513;56.258;43.980;2022-10-23T00:00:28;6.20;;;2.60;;
75866;SDS011;64513;56.258;43.980;2022-10-23T00:02:53;8.85;;;2.70;;
75866;SDS011;64513;56.258;43.980;2022-10-23T00:05:19;8.57;;;2.75;;
75866;SDS011;64513;56.258;43.980;2022-10-23T00:07:49;9.30;;;3.50;;
75866;SDS011;64513;56.258;43.980;2022-10-23T00:10:16;11.30;;;3.17;;
75866;SDS011;64513;56.258;43.980;2022-10-23T00:12:43;9.32;;;2.92;;
75866;SDS011;64513;56.258;43.980;2022-10-23T00:15:08;11.70;;;3.03;;
75866;SDS011;64513;56.258;43.980;2022-10-23T00:17:34;8.00;;;2.70;;
75866;SDS011;64513;56.258;43.980;2022-10-23T00:19:59;8.10;;;2.67;;
75866;SDS011;64513;56.258;43.980;2022-10-23T00:22:25;7.65;;;2.95;;
75866;SDS011;64513;56.258;43.980;2022-10-23T00:24:51;9.00;;;2.90;;
75866;SDS011;64513;56.258;43.980;2022-10-23T00:27:16;8.13;;;2.60;;
75866;SDS011;64513;56.258;43.980;2022-10-23T00:29:43;7.30;;;2.50;;
75866;SDS011;64513;56.258;43.980;2022-10-23T00:32:08;6.07;;;2.28;;
75866;SDS011;64513;56.258;43.980;2022-10-23T00:34:34;10.20;;;2.80;;
75866;SDS011;64513;56.258;43.980;2022-10-23T00:36:59;7.37;;;2.63;;
75866;SDS011;64513;56.258;43.980;2022-10-23T00:39:25;9.05;;;3.08;;
75866;SDS011;64513;56.258;43.980;2022-10-23T00:41:50;6.90;;;2.90;;
75866;SDS011;64513;56.258;43.980;2022-10-23T00:46:41;9.20;;;2.92;;
75866;SDS011;64513;56.258;43.980;2022-10-23T00:49:07;8.43;;;3.10;;
75866;SDS011;64513;56.258;43.980;2022-10-23T00:52:07;8.32;;;3.15;;
75866;SDS011;64513;56.258;43.980;2022-10-23T00:54:28;6.43;;;2.28;;
75866;SDS011;64513;56.258;43.980;2022-10-23T00:56:57;7.30;;;2.77;;
75866;SDS011;64513;56.258;43.980;2022-10-23T00:59:26;9.05;;;3.20;;
75866;SDS011;64513;56.258;43.980;2022-10-23T01:01:52;8.40;;;2.42;;
75866;SDS011;64513;56.258;43.980;2022-10-23T01:04:18;8.63;;;2.90;;
75866;SDS011;64513;56.258;43.980;2022-10-23T01:06:48;25.73;;;3.60;;
75866;SDS011;64513;56.258;43.980;2022-10-23T01:09:33;9.97;;;2.83;;
75866;SDS011;64513;56.258;43.980;2022-10-23T01:17:47;7.53;;;2.83;;
75866;SDS011;64513;56.258;43.980;2022-10-23T01:20:21;10.93;;;3.13;;
75866;SDS011;64513;56.258;43.980;2022-10-23T01:28:15;9.88;;;3.80;;
75866;SDS011;64513;56.258;43.980;2022-10-23T01:30:49;7.93;;;2.70;;
75866;SDS011;64513;56.258;43.980;2022-10-23T01:33:16;7.80;;;2.67;;
75866;SDS011;64513;56.258;43.980;2022-10-23T01:36:07;7.35;;;3.00;;
75866;SDS011;64513;56.258;43.980;2022-10-23T01:38:40;9.48;;;2.90;;
75866;SDS011;64513;56.258;43.980;2022-10-23T01:41:15;10.47;;;3.10;;
75866;SDS011;64513;56.258;43.980;2022-10-23T01:44:46;9.02;;;3.10;;
75866;SDS011;64513;56.258;43.980;2022-10-23T01:46:58;7.32;;;3.17;;
75866;SDS011;64513;56.258;43.980;2022-10-23T01:49:25;10.77;;;3.10;;
75866;SDS011;64513;56.258;43.980;2022-10-23T01:51:56;10.15;;;3.35;;
75866;SDS011;64513;56.258;43.980;2022-10-23T01:54:28;8.27;;;2.90;;
75866;SDS011;64513;56.258;43.980;2022-10-23T01:56:55;8.55;;;3.08;;
75866;SDS011;64513;56.258;43.980;2022-10-23T01:59:24;9.18;;;3.50;;
75866;SDS011;64513;56.258;43.980;2022-10-23T02:01:56;7.55;;;2.90;;
75866;SDS011;64513;56.258;43.980;2022-10-23T02:04:26;9.80;;;2.90;;
75866;SDS011;64513;56.258;43.980;2022-10-23T02:06:57;9.23;;;2.67;;
75866;SDS011;64513;56.258;43.980;2022-10-23T02:09:23;8.35;;;2.90;;
75866;SDS011;64513;56.258;43.980;2022-10-23T02:11:59;6.50;;;2.20;;
75866;SDS011;64513;56.258;43.980;2022-10-23T02:17:12;7.20;;;2.70;;
75866;SDS011;64513;56.258;43.980;2022-10-23T02:19:47;9.02;;;2.70;;
75866;SDS011;64513;56.258;43.980;2022-10-23T02:22:24;7.53;;;2.83;;
75866;SDS011;64513;56.258;43.980;2022-10-23T02:30:05;7.97;;;2.95;;
75866;SDS011;64513;56.258;43.980;2022-10-23T02:32:34;8.13;;;2.63;;
75866;SDS011;64513;56.258;43.980;2022-10-23T02:35:03;9.68;;;3.70;;
75866;SDS011;64513;56.258;43.980;2022-10-23T02:37:28;11.55;;;4.10;;
75866;SDS011;64513;56.258;43.980;2022-10-23T02:39:54;9.83;;;3.33;;
75866;SDS011;64513;56.258;43.980;2022-10-23T02:47:43;9.43;;;3.42;;
75866;SDS011;64513;56.258;43.980;2022-10-23T02:50:28;10.88;;;4.20;;
75866;SDS011;64513;56.258;43.980;2022-10-23T02:52:58;10.25;;;3.72;;
75866;SDS011;64513;56.258;43.980;2022-10-23T03:01:09;12.02;;;4.38;;
75866;SDS011;64513;56.258;43.980;2022-10-23T03:03:43;14.27;;;4.28;;
75866;SDS011;64513;56.258;43.980;2022-10-23T03:06:15;13.23;;;3.97;;
75866;SDS011;64513;56.258;43.980;2022-10-23T03:08:46;10.87;;;3.90;;
75866;SDS011;64513;56.258;43.980;2022-10-23T03:11:16;12.43;;;4.28;;
75866;SDS011;64513;56.258;43.980;2022-10-23T03:13:41;9.57;;;3.67;;
75866;SDS011;64513;56.258;43.980;2022-10-23T03:16:06;12.50;;;3.70;;
75866;SDS011;64513;56.258;43.980;2022-10-23T03:18:32;13.07;;;3.85;;
75866;SDS011;64513;56.258;43.980;2022-10-23T03:20:57;11.30;;;4.00;;
75866;SDS011;64513;56.258;43.980;2022-10-23T03:23:23;11.37;;;4.07;;
75866;SDS011;64513;56.258;43.980;2022-10-23T03:25:48;16.83;;;4.00;;
75866;SDS011;64513;56.258;43.980;2022-10-23T03:28:14;9.27;;;3.67;;
75866;SDS011;64513;56.258;43.980;2022-10-23T03:30:40;10.18;;;4.05;;
75866;SDS011;64513;56.258;43.980;2022-10-23T03:33:05;14.00;;;4.53;;
75866;SDS011;64513;56.258;43.980;2022-10-23T03:35:30;9.37;;;3.77;;
75866;SDS011;64513;56.258;43.980;2022-10-23T03:37:56;14.27;;;4.37;;
75866;SDS011;64513;56.258;43.980;2022-10-23T03:40:21;10.73;;;3.42;;
75866;SDS011;64513;56.258;43.980;2022-10-23T03:42:47;10.70;;;4.30;;
75866;SDS011;64513;56.258;43.980;2022-10-23T03:45:12;12.40;;;4.23;;
75866;SDS011;64513;56.258;43.980;2022-10-23T03:47:38;11.73;;;4.23;;
75866;SDS011;64513;56.258;43.980;2022-10-23T03:50:03;11.97;;;4.30;;
75866;SDS011;64513;56.258;43.980;2022-10-23T03:52:29;9.23;;;3.53;;
75866;SDS011;64513;56.258;43.980;2022-10-23T03:54:54;10.70;;;4.10;;
75866;SDS011;64513;56.258;43.980;2022-10-23T03:57:20;10.07;;;3.30;;
75866;SDS011;64513;56.258;43.980;2022-10-23T03:59:45;10.47;;;4.33;;
75866;SDS011;64513;56.258;43.980;2022-10-23T04:02:11;11.93;;;4.57;;
75866;SDS011;64513;56.258;43.980;2022-10-23T04:04:36;9.85;;;3.63;;
75866;SDS011;64513;56.258;43.980;2022-10-23T04:07:02;15.93;;;4.33;;
75866;SDS011;64513;56.258;43.980;2022-10-23T04:09:27;9.30;;;3.63;;
75866;SDS011;64513;56.258;43.980;2022-10-23T04:11:54;10.07;;;4.00;;
75866;SDS011;64513;56.258;43.980;2022-10-23T04:14:19;9.77;;;4.13;;
75866;SDS011;64513;56.258;43.980;2022-10-23T04:16:45;9.85;;;3.38;;
75866;SDS011;64513;56.258;43.980;2022-10-23T04:19:10;10.70;;;4.00;;
75866;SDS011;64513;56.258;43.980;2022-10-23T04:21:36;11.03;;;3.80;;
75866;SDS011;64513;56.258;43.980;2022-10-23T04:24:01;12.73;;;3.95;;
75866;SDS011;64513;56.258;43.980;2022-10-23T04:26:27;10.33;;;3.97;;
75866;SDS011;64513;56.258;43.980;2022-10-23T04:28:52;12.47;;;3.50;;
75866;SDS011;64513;56.258;43.980;2022-10-23T04:31:18;12.38;;;4.68;;
75866;SDS011;64513;56.258;43.980;2022-10-23T04:33:43;8.70;;;3.73;;
75866;SDS011;64513;56.258;43.980;2022-10-23T04:36:09;10.23;;;4.60;;
75866;SDS011;64513;56.258;43.980;2022-10-23T04:38:34;12.65;;;4.65;;
75866;SDS011;64513;56.258;43.980;2022-10-23T04:41:00;12.30;;;4.17;;
75866;SDS011;64513;56.258;43.980;2022-10-23T04:43:25;13.67;;;4.57;;
75866;SDS011;64513;56.258;43.980;2022-10-23T04:45:50;9.83;;;3.70;;
75866;SDS011;64513;56.258;43.980;2022-10-23T04:48:16;13.13;;;4.07;;
75866;SDS011;64513;56.258;43.980;2022-10-23T04:50:42;13.53;;;3.73;;
75866;SDS011;64513;56.258;43.980;2022-10-23T04:53:07;19.50;;;4.77;;
75866;SDS011;64513;56.258;43.980;2022-10-23T04:55:33;11.05;;;3.47;;
75866;SDS011;64513;56.258;43.980;2022-10-23T04:57:58;14.90;;;4.23;;
75866;SDS011;64513;56.258;43.980;2022-10-23T05:00:24;12.15;;;3.72;;
75866;SDS011;64513;56.258;43.980;2022-10-23T05:02:50;13.27;;;3.90;;
75866;SDS011;64513;56.258;43.980;2022-10-23T05:05:15;10.57;;;4.47;;
75866;SDS011;64513;56.258;43.980;2022-10-23T05:07:41;11.20;;;4.70;;
75866;SDS011;64513;56.258;43.980;2022-10-23T05:10:07;11.10;;;4.05;;
75866;SDS011;64513;56.258;43.980;2022-10-23T05:12:33;9.23;;;3.47;;
75866;SDS011;64513;56.258;43.980;2022-10-23T05:14:59;12.73;;;3.77;;
75866;SDS011;64513;56.258;43.980;2022-10-23T05:17:31;13.87;;;5.63;;
75866;SDS011;64513;56.258;43.980;2022-10-23T05:20:02;11.32;;;3.95;;
75866;SDS011;64513;56.258;43.980;2022-10-23T05:22:31;13.20;;;4.75;;
75866;SDS011;64513;56.258;43.980;2022-10-23T05:25:00;11.32;;;4.47;;
75866;SDS011;64513;56.258;43.980;2022-10-23T05:27:26;13.03;;;4.87;;
75866;SDS011;64513;56.258;43.980;2022-10-23T05:29:52;9.80;;;3.15;;
75866;SDS011;64513;56.258;43.980;2022-10-23T05:32:17;15.82;;;4.65;;
75866;SDS011;64513;56.258;43.980;2022-10-23T05:34:43;9.83;;;3.80;;
75866;SDS011;64513;56.258;43.980;2022-10-23T05:37:09;16.40;;;4.70;;
75866;SDS011;64513;56.258;43.980;2022-10-23T05:39:37;12.13;;;3.57;;
75866;SDS011;64513;56.258;43.980;2022-10-23T05:42:03;11.85;;;4.15;;
75866;SDS011;64513;56.258;43.980;2022-10-23T05:44:28;10.23;;;4.37;;
75866;SDS011;64513;56.258;43.980;2022-10-23T05:46:54;11.77;;;4.40;;
75866;SDS011;64513;56.258;43.980;2022-10-23T05:49:19;11.27;;;4.13;;
75866;SDS011;64513;56.258;43.980;2022-10-23T05:51:45;9.00;;;3.83;;
75866;SDS011;64513;56.258;43.980;2022-10-23T05:54:10;13.43;;;4.70;;
75866;SDS011;64513;56.258;43.980;2022-10-23T05:56:36;10.40;;;4.23;;
75866;SDS011;64513;56.258;43.980;2022-10-23T05:59:03;10.95;;;4.53;;
75866;SDS011;64513;56.258;43.980;2022-10-23T06:01:29;13.32;;;5.28;;
75866;SDS011;64513;56.258;43.980;2022-10-23T06:03:55;12.27;;;4.45;;
75866;SDS011;64513;56.258;43.980;2022-10-23T06:06:22;10.40;;;4.40;;
75866;SDS011;64513;56.258;43.980;2022-10-23T06:08:47;14.50;;;4.63;;
75866;SDS011;64513;56.258;43.980;2022-10-23T06:11:13;9.80;;;3.40;;
75866;SDS011;64513;56.258;43.980;2022-10-23T06:13:43;9.77;;;4.10;;
75866;SDS011;64513;56.258;43.980;2022-10-23T06:18:36;12.37;;;4.87;;
75866;SDS011;64513;56.258;43.980;2022-10-23T06:21:02;13.40;;;4.13;;
75866;SDS011;64513;56.258;43.980;2022-10-23T06:23:32;12.53;;;4.50;;
75866;SDS011;64513;56.258;43.980;2022-10-23T06:25:58;11.10;;;4.13;;
75866;SDS011;64513;56.258;43.980;2022-10-23T06:28:24;9.70;;;4.30;;
75866;SDS011;64513;56.258;43.980;2022-10-23T06:30:50;9.10;;;3.97;;
75866;SDS011;64513;56.258;43.980;2022-10-23T06:33:15;16.20;;;4.47;;
75866;SDS011;64513;56.258;43.980;2022-10-23T06:35:41;11.40;;;4.53;;
75866;SDS011;64513;56.258;43.980;2022-10-23T06:38:06;12.97;;;5.57;;
75866;SDS011;64513;56.258;43.980;2022-10-23T06:40:32;11.83;;;4.67;;
75866;SDS011;64513;56.258;43.980;2022-10-23T06:42:57;10.48;;;4.38;;
75866;SDS011;64513;56.258;43.980;2022-10-23T06:45:22;12.97;;;4.47;;
75866;SDS011;64513;56.258;43.980;2022-10-23T06:47:48;13.20;;;5.13;;
75866;SDS011;64513;56.258;43.980;2022-10-23T06:50:14;15.73;;;5.65;;
75866;SDS011;64513;56.258;43.980;2022-10-23T06:52:40;11.00;;;4.47;;
75866;SDS011;64513;56.258;43.980;2022-10-23T06:55:05;17.67;;;4.45;;
75866;SDS011;64513;56.258;43.980;2022-10-23T06:57:32;9.20;;;3.83;;
75866;SDS011;64513;56.258;43.980;2022-10-23T06:59:57;13.85;;;5.38;;
75866;SDS011;64513;56.258;43.980;2022-10-23T07:02:23;9.87;;;4.00;;
75866;SDS011;64513;56.258;43.980;2022-10-23T07:04:48;15.35;;;4.35;;
75866;SDS011;64513;56.258;43.980;2022-10-23T07:07:14;14.17;;;4.33;;
75866;SDS011;64513;56.258;43.980;2022-10-23T07:09:39;9.30;;;3.60;;
75866;SDS011;64513;56.258;43.980;2022-10-23T07:12:05;9.93;;;4.15;;
75866;SDS011;64513;56.258;43.980;2022-10-23T07:14:30;14.33;;;5.07;;
75866;SDS011;64513;56.258;43.980;2022-10-23T07:16:56;16.73;;;8.10;;
75866;SDS011;64513;56.258;43.980;2022-10-23T07:19:21;13.68;;;6.22;;
75866;SDS011;64513;56.258;43.980;2022-10-23T07:21:47;9.93;;;3.50;;
75866;SDS011;64513;56.258;43.980;2022-10-23T07:24:12;9.70;;;3.73;;
75866;SDS011;64513;56.258;43.980;2022-10-23T07:26:38;11.13;;;4.43;;
75866;SDS011;64513;56.258;43.980;2022-10-23T07:29:03;14.47;;;5.27;;
75866;SDS011;64513;56.258;43.980;2022-10-23T07:31:29;13.77;;;4.55;;
75866;SDS011;64513;56.258;43.980;2022-10-23T07:33:54;16.87;;;6.07;;
75866;SDS011;64513;56.258;43.980;2022-10-23T07:36:20;16.70;;;4.90;;
75866;SDS011;64513;56.258;43.980;2022-10-23T07:38:45;20.45;;;5.07;;
75866;SDS011;64513;56.258;43.980;2022-10-23T07:41:11;23.60;;;5.20;;
75866;SDS011;64513;56.258;43.980;2022-10-23T07:43:36;16.07;;;5.97;;
75866;SDS011;64513;56.258;43.980;2022-10-23T07:46:02;19.77;;;4.93;;
75866;SDS011;64513;56.258;43.980;2022-10-23T07:48:28;13.63;;;4.67;;
75866;SDS011;64513;56.258;43.980;2022-10-23T07:50:58;17.48;;;5.07;;
75866;SDS011;64513;56.258;43.980;2022-10-23T07:53:25;18.17;;;5.22;;
75866;SDS011;64513;56.258;43.980;2022-10-23T07:55:53;10.93;;;4.00;;
75866;SDS011;64513;56.258;43.980;2022-10-23T07:58:20;13.17;;;5.10;;
75866;SDS011;64513;56.258;43.980;2022-10-23T08:00:48;14.23;;;5.53;;
75866;SDS011;64513;56.258;43.980;2022-10-23T08:03:20;14.82;;;5.50;;
75866;SDS011;64513;56.258;43.980;2022-10-23T08:05:46;13.27;;;4.97;;
75866;SDS011;64513;56.258;43.980;2022-10-23T08:08:11;11.35;;;4.40;;
75866;SDS011;64513;56.258;43.980;2022-10-23T08:10:37;10.63;;;4.03;;
75866;SDS011;64513;56.258;43.980;2022-10-23T08:13:02;10.53;;;3.97;;
75866;SDS011;64513;56.258;43.980;2022-10-23T08:15:28;15.02;;;4.78;;
75866;SDS011;64513;56.258;43.980;2022-10-23T08:17:53;10.93;;;4.20;;
75866;SDS011;64513;56.258;43.980;2022-10-23T08:20:19;12.03;;;5.30;;
75866;SDS011;64513;56.258;43.980;2022-10-23T08:22:44;14.67;;;6.30;;
75866;SDS011;64513;56.258;43.980;2022-10-23T08:25:09;14.27;;;5.07;;
75866;SDS011;64513;56.258;43.980;2022-10-23T08:27:35;11.70;;;5.00;;
75866;SDS011;64513;56.258;43.980;2022-10-23T08:30:00;17.30;;;5.97;;
75866;SDS011;64513;56.258;43.980;2022-10-23T08:32:28;10.77;;;4.88;;
75866;SDS011;64513;56.258;43.980;2022-10-23T08:34:54;11.98;;;4.90;;
75866;SDS011;64513;56.258;43.980;2022-10-23T08:37:19;14.80;;;5.23;;
75866;SDS011;64513;56.258;43.980;2022-10-23T08:39:45;14.90;;;5.37;;
75866;SDS011;64513;56.258;43.980;2022-10-23T08:42:20;15.27;;;5.53;;
75866;SDS011;64513;56.258;43.980;2022-10-23T08:47:35;13.60;;;4.97;;
75866;SDS011;64513;56.258;43.980;2022-10-23T08:52:35;16.30;;;4.63;;
75866;SDS011;64513;56.258;43.980;2022-10-23T08:55:14;13.93;;;4.97;;
75866;SDS011;64513;56.258;43.980;2022-10-23T08:58:14;12.40;;;5.20;;
75866;SDS011;64513;56.258;43.980;2022-10-23T09:00:45;13.20;;;5.35;;
75866;SDS011;64513;56.258;43.980;2022-10-23T09:03:11;10.70;;;4.33;;
75866;SDS011;64513;56.258;43.980;2022-10-23T09:11:12;11.18;;;5.20;;
75866;SDS011;64513;56.258;43.980;2022-10-23T09:19:21;12.05;;;5.00;;
75866;SDS011;64513;56.258;43.980;2022-10-23T09:21:48;11.55;;;5.28;;
75866;SDS011;64513;56.258;43.980;2022-10-23T09:24:14;20.48;;;4.68;;
75866;SDS011;64513;56.258;43.980;2022-10-23T09:26:43;12.00;;;5.07;;
75866;SDS011;64513;56.258;43.980;2022-10-23T09:29:16;14.97;;;5.73;;
75866;SDS011;64513;56.258;43.980;2022-10-23T09:31:55;16.90;;;6.03;;
75866;SDS011;64513;56.258;43.980;2022-10-23T09:34:24;13.55;;;5.05;;
75866;SDS011;64513;56.258;43.980;2022-10-23T09:36:53;13.07;;;5.75;;
75866;SDS011;64513;56.258;43.980;2022-10-23T09:39:25;14.13;;;4.60;;
75866;SDS011;64513;56.258;43.980;2022-10-23T09:41:53;11.57;;;5.10;;
75866;SDS011;64513;56.258;43.980;2022-10-23T09:44:21;11.52;;;5.05;;
75866;SDS011;64513;56.258;43.980;2022-10-23T09:46:52;17.17;;;5.60;;
75866;SDS011;64513;56.258;43.980;2022-10-23T09:49:32;12.45;;;5.10;;
75866;SDS011;64513;56.258;43.980;2022-10-23T09:52:00;13.25;;;5.55;;
75866;SDS011;64513;56.258;43.980;2022-10-23T09:54:32;17.33;;;6.23;;
75866;SDS011;64513;56.258;43.980;2022-10-23T09:59:42;15.68;;;5.85;;
75866;SDS011;64513;56.258;43.980;2022-10-23T10:02:19;14.65;;;5.95;;
75866;SDS011;64513;56.258;43.980;2022-10-23T10:04:56;13.35;;;5.57;;
75866;SDS011;64513;56.258;43.980;2022-10-23T10:09:49;14.18;;;5.63;;
75866;SDS011;64513;56.258;43.980;2022-10-23T10:15:37;13.30;;;5.70;;
75866;SDS011;64513;56.258;43.980;2022-10-23T10:18:16;9.80;;;4.88;;
75866;SDS011;64513;56.258;43.980;2022-10-23T10:23:37;11.13;;;4.80;;
75866;SDS011;64513;56.258;43.980;2022-10-23T10:26:16;13.18;;;4.70;;
75866;SDS011;64513;56.258;43.980;2022-10-23T10:31:25;12.05;;;5.15;;
75866;SDS011;64513;56.258;43.980;2022-10-23T10:34:09;18.33;;;5.67;;
75866;SDS011;64513;56.258;43.980;2022-10-23T10:37:48;12.35;;;5.45;;
75866;SDS011;64513;56.258;43.980;2022-10-23T10:42:22;11.05;;;5.13;;
75866;SDS011;64513;56.258;43.980;2022-10-23T10:47:39;9.90;;;3.83;;
75866;SDS011;64513;56.258;43.980;2022-10-23T10:52:54;13.05;;;5.10;;
75866;SDS011;64513;56.258;43.980;2022-10-23T10:55:42;17.23;;;5.20;;
75866;SDS011;64513;56.258;43.980;2022-10-23T11:00:50;11.60;;;5.20;;
75866;SDS011;64513;56.258;43.980;2022-10-23T11:06:10;16.40;;;4.80;;
75866;SDS011;64513;56.258;43.980;2022-10-23T11:08:39;15.70;;;6.00;;
75866;SDS011;64513;56.258;43.980;2022-10-23T11:13:37;19.77;;;5.43;;
75866;SDS011;64513;56.258;43.980;2022-10-23T11:21:39;12.27;;;4.38;;
75866;SDS011;64513;56.258;43.980;2022-10-23T11:27:06;9.73;;;4.47;;
75866;SDS011;64513;56.258;43.980;2022-10-23T11:30:07;15.27;;;5.90;;
75866;SDS011;64513;56.258;43.980;2022-10-23T11:35:41;11.85;;;5.55;;
75866;SDS011;64513;56.258;43.980;2022-10-23T11:38:27;14.55;;;6.30;;
75866;SDS011;64513;56.258;43.980;2022-10-23T11:41:19;16.60;;;6.10;;
75866;SDS011;64513;56.258;43.980;2022-10-23T11:43:49;14.73;;;5.53;;
75866;SDS011;64513;56.258;43.980;2022-10-23T11:48:48;14.23;;;5.78;;
75866;SDS011;64513;56.258;43.980;2022-10-23T11:54:21;14.27;;;6.53;;
75866;SDS011;64513;56.258;43.980;2022-10-23T11:59:32;14.23;;;6.05;;
75866;SDS011;64513;56.258;43.980;2022-10-23T12:02:01;17.10;;;6.82;;
75866;SDS011;64513;56.258;43.980;2022-10-23T12:04:47;14.93;;;6.63;;
75866;SDS011;64513;56.258;43.980;2022-10-23T12:07:26;17.60;;;6.70;;
75866;SDS011;64513;56.258;43.980;2022-10-23T12:10:03;15.70;;;6.65;;
75866;SDS011;64513;56.258;43.980;2022-10-23T12:12:35;11.38;;;5.22;;
75866;SDS011;64513;56.258;43.980;2022-10-23T12:17:37;16.73;;;6.53;;
75866;SDS011;64513;56.258;43.980;2022-10-23T12:20:50;16.23;;;6.47;;
75866;SDS011;64513;56.258;43.980;2022-10-23T12:23:24;17.60;;;7.10;;
75866;SDS011;64513;56.258;43.980;2022-10-23T12:26:04;15.70;;;6.50;;
75866;SDS011;64513;56.258;43.980;2022-10-23T12:28:58;13.77;;;5.60;;
75866;SDS011;64513;56.258;43.980;2022-10-23T12:34:15;16.20;;;7.27;;
75866;SDS011;64513;56.258;43.980;2022-10-23T12:39:50;15.65;;;6.68;;
75866;SDS011;64513;56.258;43.980;2022-10-23T12:42:22;15.55;;;5.97;;
75866;SDS011;64513;56.258;43.980;2022-10-23T12:45:07;14.63;;;5.93;;
75866;SDS011;64513;56.258;43.980;2022-10-23T12:47:42;18.47;;;7.17;;
75866;SDS011;64513;56.258;43.980;2022-10-23T12:50:22;20.33;;;7.60;;
75866;SDS011;64513;56.258;43.980;2022-10-23T12:52:49;16.60;;;7.97;;
75866;SDS011;64513;56.258;43.980;2022-10-23T12:55:19;16.33;;;6.75;;
75866;SDS011;64513;56.258;43.980;2022-10-23T12:57:45;19.33;;;7.43;;
75866;SDS011;64513;56.258;43.980;2022-10-23T13:00:16;13.53;;;6.60;;
75866;SDS011;64513;56.258;43.980;2022-10-23T13:02:44;16.58;;;7.95;;
75866;SDS011;64513;56.258;43.980;2022-10-23T13:05:10;19.35;;;7.05;;
75866;SDS011;64513;56.258;43.980;2022-10-23T13:07:44;17.43;;;8.10;;
75866;SDS011;64513;56.258;43.980;2022-10-23T13:10:15;20.80;;;7.50;;
75866;SDS011;64513;56.258;43.980;2022-10-23T13:12:43;15.35;;;6.35;;
75866;SDS011;64513;56.258;43.980;2022-10-23T13:15:17;16.15;;;6.40;;
75866;SDS011;64513;56.258;43.980;2022-10-23T13:17:46;13.85;;;6.57;;
75866;SDS011;64513;56.258;43.980;2022-10-23T13:20:25;17.97;;;7.70;;
75866;SDS011;64513;56.258;43.980;2022-10-23T13:23:38;14.30;;;7.05;;
75866;SDS011;64513;56.258;43.980;2022-10-23T13:25:54;16.70;;;7.05;;
75866;SDS011;64513;56.258;43.980;2022-10-23T13:28:25;14.35;;;7.07;;
75866;SDS011;64513;56.258;43.980;2022-10-23T13:33:25;15.33;;;6.00;;
75866;SDS011;64513;56.258;43.980;2022-10-23T13:36:01;16.27;;;6.60;;
75866;SDS011;64513;56.258;43.980;2022-10-23T13:38:30;15.23;;;6.18;;
75866;SDS011;64513;56.258;43.980;2022-10-23T13:41:01;16.98;;;7.38;;
75866;SDS011;64513;56.258;43.980;2022-10-23T13:43:32;13.98;;;6.03;;
75866;SDS011;64513;56.258;43.980;2022-10-23T13:45:59;13.33;;;5.83;;
75866;SDS011;64513;56.258;43.980;2022-10-23T13:48:25;15.05;;;6.20;;
75866;SDS011;64513;56.258;43.980;2022-10-23T13:50:51;17.48;;;6.38;;
75866;SDS011;64513;56.258;43.980;2022-10-23T13:53:17;13.43;;;6.57;;
75866;SDS011;64513;56.258;43.980;2022-10-23T13:55:44;13.43;;;5.67;;
75866;SDS011;64513;56.258;43.980;2022-10-23T13:58:13;15.73;;;6.32;;
75866;SDS011;64513;56.258;43.980;2022-10-23T14:00:39;13.97;;;5.93;;
75866;SDS011;64513;56.258;43.980;2022-10-23T14:03:04;14.27;;;5.78;;
75866;SDS011;64513;56.258;43.980;2022-10-23T14:05:30;12.37;;;5.97;;
75866;SDS011;64513;56.258;43.980;2022-10-23T14:07:56;18.45;;;8.52;;
75866;SDS011;64513;56.258;43.980;2022-10-23T14:10:21;17.10;;;7.90;;
75866;SDS011;64513;56.258;43.980;2022-10-23T14:12:47;30.40;;;12.33;;
75866;SDS011;64513;56.258;43.980;2022-10-23T14:15:12;25.33;;;12.50;;
75866;SDS011;64513;56.258;43.980;2022-10-23T14:17:38;20.17;;;8.77;;
75866;SDS011;64513;56.258;43.980;2022-10-23T14:20:03;15.80;;;6.88;;
75866;SDS011;64513;56.258;43.980;2022-10-23T14:22:29;18.60;;;7.67;;
75866;SDS011;64513;56.258;43.980;2022-10-23T14:24:55;11.80;;;6.10;;
75866;SDS011;64513;56.258;43.980;2022-10-23T14:27:20;13.93;;;5.40;;
75866;SDS011;64513;56.258;43.980;2022-10-23T14:29:46;12.10;;;5.43;;
75866;SDS011;64513;56.258;43.980;2022-10-23T14:32:11;17.73;;;5.60;;
75866;SDS011;64513;56.258;43.980;2022-10-23T14:34:40;11.73;;;4.63;;
75866;SDS011;64513;56.258;43.980;2022-10-23T14:37:07;11.02;;;4.43;;
75866;SDS011;64513;56.258;43.980;2022-10-23T14:39:32;12.97;;;5.20;;
75866;SDS011;64513;56.258;43.980;2022-10-23T14:41:58;11.73;;;5.60;;
75866;SDS011;64513;56.258;43.980;2022-10-23T14:44:23;16.67;;;6.03;;
75866;SDS011;64513;56.258;43.980;2022-10-23T14:46:49;12.23;;;5.40;;
75866;SDS011;64513;56.258;43.980;2022-10-23T14:49:14;8.33;;;4.23;;
75866;SDS011;64513;56.258;43.980;2022-10-23T14:51:40;13.13;;;5.20;;
75866;SDS011;64513;56.258;43.980;2022-10-23T14:54:06;11.97;;;4.63;;
75866;SDS011;64513;56.258;43.980;2022-10-23T14:56:33;11.55;;;5.28;;
75866;SDS011;64513;56.258;43.980;2022-10-23T14:59:01;15.00;;;5.17;;
75866;SDS011;64513;56.258;43.980;2022-10-23T15:01:28;11.88;;;4.90;;
75866;SDS011;64513;56.258;43.980;2022-10-23T15:03:57;11.43;;;4.25;;
75866;SDS011;64513;56.258;43.980;2022-10-23T15:06:23;9.87;;;4.30;;
75866;SDS011;64513;56.258;43.980;2022-10-23T15:08:49;9.25;;;4.38;;
75866;SDS011;64513;56.258;43.980;2022-10-23T15:11:16;11.10;;;4.70;;
75866;SDS011;64513;56.258;43.980;2022-10-23T15:13:42;11.03;;;4.53;;
75866;SDS011;64513;56.258;43.980;2022-10-23T15:16:08;9.73;;;4.03;;
75866;SDS011;64513;56.258;43.980;2022-10-23T15:18:34;12.45;;;4.43;;
75866;SDS011;64513;56.258;43.980;2022-10-23T15:21:00;8.43;;;3.90;;
75866;SDS011;64513;56.258;43.980;2022-10-23T15:23:26;10.75;;;4.20;;
75866;SDS011;64513;56.258;43.980;2022-10-23T15:25:55;9.30;;;4.00;;
75866;SDS011;64513;56.258;43.980;2022-10-23T15:28:26;10.37;;;3.97;;
75866;SDS011;64513;56.258;43.980;2022-10-23T15:30:53;10.90;;;4.13;;
75866;SDS011;64513;56.258;43.980;2022-10-23T15:33:19;10.77;;;4.30;;
75866;SDS011;64513;56.258;43.980;2022-10-23T15:35:45;12.65;;;3.83;;
75866;SDS011;64513;56.258;43.980;2022-10-23T15:38:11;13.00;;;4.70;;
75866;SDS011;64513;56.258;43.980;2022-10-23T15:40:37;8.90;;;3.78;;
75866;SDS011;64513;56.258;43.980;2022-10-23T15:43:02;8.17;;;3.40;;
75866;SDS011;64513;56.258;43.980;2022-10-23T15:45:28;8.45;;;4.03;;
75866;SDS011;64513;56.258;43.980;2022-10-23T15:47:53;8.70;;;3.70;;
75866;SDS011;64513;56.258;43.980;2022-10-23T15:50:18;10.93;;;4.10;;
75866;SDS011;64513;56.258;43.980;2022-10-23T15:52:44;9.70;;;3.70;;
75866;SDS011;64513;56.258;43.980;2022-10-23T15:55:09;8.30;;;3.50;;
75866;SDS011;64513;56.258;43.980;2022-10-23T15:57:35;11.37;;;4.50;;
75866;SDS011;64513;56.258;43.980;2022-10-23T16:00:00;9.73;;;4.27;;
75866;SDS011;64513;56.258;43.980;2022-10-23T16:02:26;11.63;;;4.80;;
75866;SDS011;64513;56.258;43.980;2022-10-23T16:04:51;13.50;;;4.03;;
75866;SDS011;64513;56.258;43.980;2022-10-23T16:07:17;8.60;;;3.07;;
75866;SDS011;64513;56.258;43.980;2022-10-23T16:09:42;10.50;;;3.73;;
75866;SDS011;64513;56.258;43.980;2022-10-23T16:12:08;7.50;;;3.73;;
75866;SDS011;64513;56.258;43.980;2022-10-23T16:14:33;12.23;;;4.17;;
75866;SDS011;64513;56.258;43.980;2022-10-23T16:16:59;10.57;;;3.97;;
75866;SDS011;64513;56.258;43.980;2022-10-23T16:19:24;9.68;;;4.13;;
75866;SDS011;64513;56.258;43.980;2022-10-23T16:21:50;7.80;;;3.70;;
75866;SDS011;64513;56.258;43.980;2022-10-23T16:24:15;13.97;;;4.27;;
75866;SDS011;64513;56.258;43.980;2022-10-23T16:26:41;10.18;;;4.03;;